This is the latest recevied weather packets stored in our database for station/object PY2VE-13. If no packets are shown the sender has not sent any weather packets the latest 1 day(s).
| Time | Temp. | Humidity | Pressure | Rain* | Wind** | Luminosity | Snow |
|---|---|---|---|---|---|---|---|
| 1778044735 | 26.11° C | 49% | 1023.8 hPa | - | - | - | - |
| 1778043835 | 26.11° C | 51% | 1023.8 hPa | - | - | - | - |
| 1778042935 | 25° C | 54% | 1024.1 hPa | - | - | - | - |
| 1778042035 | 26.67° C | 48% | 1023.8 hPa | - | - | - | - |
| 1778041135 | 26.11° C | 50% | 1024 hPa | - | - | - | - |
| 1778040235 | 26.67° C | 49% | 1024 hPa | - | - | - | - |
| 1778039335 | 26.11° C | 49% | 1024.1 hPa | - | - | - | - |
| 1778038435 | 26.11° C | 49% | 1024.3 hPa | - | - | - | - |
| 1778037535 | 26.67° C | 47% | 1024.4 hPa | - | - | - | - |
| 1778036635 | 27.22° C | 46% | 1024.2 hPa | - | - | - | - |
| 1778035735 | 26.67° C | 46% | 1024.4 hPa | - | - | - | - |
| 1778034835 | 26.11° C | 47% | 1024.5 hPa | - | - | - | - |
| 1778033935 | 26.67° C | 46% | 1024.5 hPa | - | - | - | - |
| 1778033035 | 26.67° C | 45% | 1024.7 hPa | - | - | - | - |
| 1778032135 | 26.67° C | 45% | 1024.6 hPa | - | - | - | - |
| 1778031235 | 27.22° C | 44% | 1024.4 hPa | - | - | - | - |
| 1778030335 | 27.78° C | 44% | 1024.3 hPa | - | - | - | - |
| 1778029435 | 28.33° C | 44% | 1024.2 hPa | - | - | - | - |
| 1778028535 | 28.89° C | 43% | 1024.2 hPa | - | - | - | - |
| 1778027635 | 28.89° C | 43% | 1024.2 hPa | - | - | - | - |
| 1778011434 | 32.22° C | 31% | 1021.8 hPa | - | - | - | - |
| 1778008734 | 37.78° C | 23% | 1020.3 hPa | - | - | - | - |
* Rain since midnight (hover to see other rain measurements)
** Current wind speed in m/s (hover to see current wind gust speed)